createdAt,value
2018-05-31T00:00:50.999Z,991.15
2018-05-31T00:01:51.097Z,991.10
2018-05-31T00:02:51.315Z,991.04
2018-05-31T00:03:51.317Z,991.02
2018-05-31T00:04:51.407Z,991.00
2018-05-31T00:05:51.521Z,990.99
2018-05-31T00:06:51.609Z,990.98
2018-05-31T00:07:51.765Z,990.97
2018-05-31T00:08:51.890Z,990.99
2018-05-31T00:09:51.997Z,991.00
2018-05-31T00:10:52.093Z,991.04
2018-05-31T00:11:52.207Z,991.02
2018-05-31T00:12:52.363Z,991.00
2018-05-31T00:13:52.505Z,991.08
2018-05-31T00:14:52.642Z,991.06
2018-05-31T00:15:52.760Z,991.06
2018-05-31T00:16:52.851Z,991.06
2018-05-31T00:17:52.944Z,991.08
2018-05-31T00:18:53.095Z,991.16
2018-05-31T00:19:53.236Z,991.16
2018-05-31T00:20:53.338Z,991.10
2018-05-31T00:21:53.441Z,991.15
2018-05-31T00:22:53.631Z,991.16
2018-05-31T00:23:53.696Z,991.14
2018-05-31T00:24:53.811Z,991.16
2018-05-31T00:25:53.925Z,991.17
2018-05-31T00:26:54.014Z,991.18
2018-05-31T00:27:54.142Z,991.17
2018-05-31T00:28:54.242Z,991.15
2018-05-31T00:29:54.343Z,991.24
2018-05-31T00:30:54.435Z,991.21
2018-05-31T00:31:54.548Z,991.22
2018-05-31T00:32:54.651Z,991.24
2018-05-31T00:33:54.748Z,991.23
2018-05-31T00:34:54.852Z,991.22
2018-05-31T00:35:54.951Z,991.25
2018-05-31T00:36:55.051Z,991.23
2018-05-31T00:37:55.159Z,991.24
2018-05-31T00:38:55.274Z,991.26
2018-05-31T00:39:55.376Z,991.22
2018-05-31T00:40:55.472Z,991.22
2018-05-31T00:41:55.589Z,991.25
2018-05-31T00:42:55.687Z,991.24
2018-05-31T00:43:55.775Z,991.24
2018-05-31T00:44:55.869Z,991.24
2018-05-31T00:45:55.966Z,991.23
2018-05-31T00:46:56.078Z,991.21
2018-05-31T00:47:56.175Z,991.24
2018-05-31T00:48:56.267Z,991.21
2018-05-31T00:49:56.372Z,991.21
2018-05-31T00:50:56.469Z,991.23
2018-05-31T00:51:56.567Z,991.27
2018-05-31T00:52:56.670Z,991.29
2018-05-31T00:53:56.784Z,991.30
2018-05-31T00:54:56.887Z,991.30
2018-05-31T00:55:56.975Z,991.31
2018-05-31T00:56:57.083Z,991.32
2018-05-31T00:57:57.181Z,991.34
2018-05-31T00:58:57.282Z,991.33
2018-05-31T00:59:57.385Z,991.36
2018-05-31T01:00:57.487Z,991.35
2018-05-31T01:01:57.589Z,991.39
2018-05-31T01:02:57.693Z,991.35
2018-05-31T01:03:57.793Z,991.37
2018-05-31T01:04:57.892Z,991.42
2018-05-31T01:05:57.994Z,991.40
2018-05-31T01:06:58.096Z,991.43
2018-05-31T01:07:58.196Z,991.42
2018-05-31T01:08:58.313Z,991.42
2018-05-31T01:09:58.414Z,991.43
2018-05-31T01:10:58.517Z,991.45
2018-05-31T01:11:58.621Z,991.46
2018-05-31T01:12:58.714Z,991.42
2018-05-31T01:13:58.819Z,991.40
2018-05-31T01:14:58.916Z,991.41
2018-05-31T01:15:59.019Z,991.39
2018-05-31T01:16:59.119Z,991.34
2018-05-31T01:17:59.219Z,991.34
2018-05-31T01:18:59.326Z,991.29
2018-05-31T01:19:59.421Z,991.25
2018-05-31T01:20:59.523Z,991.22
2018-05-31T01:21:59.624Z,991.22
2018-05-31T01:22:59.733Z,991.21
2018-05-31T01:23:59.829Z,991.22
2018-05-31T01:24:59.929Z,991.21
2018-05-31T01:26:00.037Z,991.22
2018-05-31T01:27:00.132Z,991.22
2018-05-31T01:28:00.237Z,991.28
2018-05-31T01:29:00.340Z,991.26
2018-05-31T01:30:00.440Z,991.27
2018-05-31T01:31:00.539Z,991.24
2018-05-31T01:32:00.682Z,991.24
2018-05-31T01:33:00.744Z,991.23
2018-05-31T01:34:00.841Z,991.20
2018-05-31T01:35:00.945Z,991.22
2018-05-31T01:36:01.046Z,991.16
2018-05-31T01:37:01.147Z,991.11
2018-05-31T01:38:01.245Z,991.04
2018-05-31T01:39:01.348Z,991.03
2018-05-31T01:40:01.451Z,991.05
2018-05-31T01:41:01.551Z,991.06
2018-05-31T01:42:01.650Z,991.06
2018-05-31T01:43:01.752Z,991.11
2018-05-31T01:44:01.853Z,991.13
2018-05-31T01:45:01.972Z,991.15
2018-05-31T01:46:02.052Z,991.16
2018-05-31T01:47:02.154Z,991.10
2018-05-31T01:48:02.251Z,991.13
2018-05-31T01:49:02.346Z,991.12
2018-05-31T01:50:02.449Z,991.08
2018-05-31T01:51:02.548Z,991.02
2018-05-31T01:52:02.649Z,991.06
2018-05-31T01:53:02.762Z,991.03
2018-05-31T01:54:02.861Z,991.05
2018-05-31T01:55:02.959Z,991.09
2018-05-31T01:56:03.059Z,991.07
2018-05-31T01:57:03.160Z,991.07
2018-05-31T01:58:03.262Z,991.04
2018-05-31T01:59:03.361Z,991.03
2018-05-31T02:00:03.472Z,991.03
2018-05-31T02:01:03.571Z,991.02
2018-05-31T02:02:03.671Z,990.99
2018-05-31T02:03:03.774Z,990.96
2018-05-31T02:04:03.872Z,990.97
2018-05-31T02:05:03.976Z,990.98
2018-05-31T02:06:04.081Z,990.98
2018-05-31T02:07:04.182Z,990.96
2018-05-31T02:08:04.284Z,990.94
2018-05-31T02:09:04.386Z,990.97
2018-05-31T02:10:04.485Z,990.96
2018-05-31T02:11:04.582Z,990.98
2018-05-31T02:12:04.685Z,990.93
2018-05-31T02:13:04.784Z,990.91
2018-05-31T02:14:04.901Z,990.93
2018-05-31T02:15:05.002Z,990.89
2018-05-31T02:16:05.104Z,990.94
2018-05-31T02:17:05.200Z,990.90
2018-05-31T02:18:05.306Z,990.90
2018-05-31T02:19:05.405Z,990.89
2018-05-31T02:20:05.504Z,990.89
2018-05-31T02:21:05.610Z,990.88
2018-05-31T02:22:05.718Z,990.85
2018-05-31T02:23:05.815Z,990.87
2018-05-31T02:24:05.915Z,990.76
2018-05-31T02:25:06.019Z,990.81
2018-05-31T02:26:06.117Z,990.84
2018-05-31T02:27:06.220Z,990.84
2018-05-31T02:28:06.320Z,990.84
2018-05-31T02:29:06.422Z,990.88
2018-05-31T02:30:06.524Z,990.88
2018-05-31T02:31:06.622Z,990.86
2018-05-31T02:32:06.724Z,990.92
2018-05-31T02:33:06.822Z,990.90
2018-05-31T02:34:06.923Z,990.86
2018-05-31T02:35:07.050Z,990.87
2018-05-31T02:36:07.155Z,990.88
2018-05-31T02:37:07.248Z,990.87
2018-05-31T02:38:07.349Z,990.86
2018-05-31T02:39:07.451Z,990.84
2018-05-31T02:40:07.550Z,990.83
2018-05-31T02:41:07.651Z,990.85
2018-05-31T02:42:07.754Z,990.88
2018-05-31T02:43:07.852Z,990.87
2018-05-31T02:44:07.953Z,990.86
2018-05-31T02:45:08.053Z,990.86
2018-05-31T02:46:08.157Z,990.86
2018-05-31T02:47:08.256Z,990.82
2018-05-31T02:48:08.358Z,990.80
2018-05-31T02:49:08.469Z,990.80
2018-05-31T02:50:08.610Z,990.75
2018-05-31T02:51:09.617Z,990.78
2018-05-31T02:52:08.823Z,990.83
2018-05-31T02:53:09.040Z,990.82
2018-05-31T02:54:09.105Z,990.80
2018-05-31T02:55:09.308Z,990.83
2018-05-31T02:56:09.314Z,990.82
2018-05-31T02:57:09.444Z,990.79
2018-05-31T02:58:09.666Z,990.75
2018-05-31T02:59:09.634Z,990.74
2018-05-31T03:00:09.722Z,990.74
2018-05-31T03:01:09.902Z,990.69
2018-05-31T03:02:10.069Z,990.68
2018-05-31T03:03:10.131Z,990.68
2018-05-31T03:04:10.244Z,990.70
2018-05-31T03:05:10.293Z,990.68
2018-05-31T03:06:10.462Z,990.74
2018-05-31T03:07:10.489Z,990.73
2018-05-31T03:08:10.857Z,990.70
2018-05-31T03:09:10.733Z,990.69
2018-05-31T03:10:11.099Z,990.66
2018-05-31T03:11:10.968Z,990.66
2018-05-31T03:12:11.195Z,990.66
2018-05-31T03:13:11.433Z,990.67
2018-05-31T03:14:11.334Z,990.65
2018-05-31T03:15:11.409Z,990.70
2018-05-31T03:16:11.544Z,990.63
2018-05-31T03:17:11.676Z,990.72
2018-05-31T03:18:11.842Z,990.71
2018-05-31T03:19:11.849Z,990.74
2018-05-31T03:20:11.945Z,990.72
2018-05-31T03:21:12.235Z,990.75
2018-05-31T03:22:12.154Z,990.77
2018-05-31T03:23:12.249Z,990.81
2018-05-31T03:24:12.373Z,990.80
2018-05-31T03:25:12.525Z,990.79
2018-05-31T03:26:12.837Z,990.83
2018-05-31T03:27:12.694Z,990.84
2018-05-31T03:28:12.964Z,990.86
2018-05-31T03:29:12.967Z,990.86
2018-05-31T03:30:13.159Z,990.87
2018-05-31T03:31:13.177Z,990.84
2018-05-31T03:32:13.453Z,990.84
2018-05-31T03:33:13.535Z,990.85
2018-05-31T03:34:13.633Z,990.83
2018-05-31T03:35:13.685Z,990.84
2018-05-31T03:36:13.807Z,990.81
2018-05-31T03:37:13.783Z,990.82
2018-05-31T03:38:13.912Z,990.85
2018-05-31T03:39:14.066Z,990.83
2018-05-31T03:40:14.170Z,990.83
2018-05-31T03:41:14.312Z,990.86
2018-05-31T03:42:14.333Z,990.89
2018-05-31T03:43:14.597Z,990.89
2018-05-31T03:44:14.530Z,990.87
2018-05-31T03:45:14.661Z,990.89
2018-05-31T03:46:14.614Z,990.90
2018-05-31T03:47:14.753Z,990.89
2018-05-31T03:48:14.870Z,990.88
2018-05-31T03:49:14.986Z,990.87
2018-05-31T03:50:15.070Z,990.85
2018-05-31T03:51:15.235Z,990.82
2018-05-31T03:52:15.214Z,990.84
2018-05-31T03:53:15.319Z,990.86
2018-05-31T03:54:15.413Z,990.86
2018-05-31T03:55:15.643Z,990.85
2018-05-31T03:56:15.595Z,990.88
2018-05-31T03:57:15.743Z,990.87
2018-05-31T03:58:15.872Z,990.89
2018-05-31T03:59:16.023Z,990.91
2018-05-31T04:00:16.129Z,990.91
2018-05-31T04:01:16.097Z,990.92
2018-05-31T04:02:16.199Z,990.95
2018-05-31T04:03:16.401Z,990.96
2018-05-31T04:04:16.367Z,990.95
2018-05-31T04:05:16.575Z,990.94
2018-05-31T04:06:16.567Z,990.94
2018-05-31T04:07:16.712Z,990.93
2018-05-31T04:08:16.823Z,990.94
2018-05-31T04:09:16.917Z,990.97
2018-05-31T04:10:17.110Z,990.98
2018-05-31T04:11:17.146Z,991.01
2018-05-31T04:12:17.394Z,990.99
2018-05-31T04:13:17.376Z,991.02
2018-05-31T04:14:17.477Z,991.03
2018-05-31T04:15:17.622Z,991.05
2018-05-31T04:16:17.749Z,991.02
2018-05-31T04:17:17.853Z,991.02
2018-05-31T04:18:18.039Z,990.99
2018-05-31T04:19:18.025Z,991.01
2018-05-31T04:20:18.108Z,991.03
2018-05-31T04:21:18.218Z,991.02
2018-05-31T04:22:18.331Z,991.07
2018-05-31T04:23:18.434Z,991.02
2018-05-31T04:24:18.571Z,991.05
2018-05-31T04:25:18.652Z,991.03
2018-05-31T04:26:18.802Z,991.01
2018-05-31T04:27:18.903Z,991.05
2018-05-31T04:28:19.005Z,991.05
2018-05-31T04:29:19.195Z,991.08
2018-05-31T04:30:19.166Z,991.02
2018-05-31T04:31:19.269Z,991.06
2018-05-31T04:32:19.368Z,991.05
2018-05-31T04:33:19.465Z,991.06
2018-05-31T04:34:19.555Z,991.08
2018-05-31T04:35:19.690Z,991.07
2018-05-31T04:36:19.817Z,991.05
2018-05-31T04:37:19.903Z,991.03
2018-05-31T04:38:20.088Z,991.00
2018-05-31T04:39:20.068Z,991.00
2018-05-31T04:40:20.173Z,991.04
2018-05-31T04:41:20.271Z,991.03
2018-05-31T04:42:20.380Z,990.98
2018-05-31T04:43:20.497Z,991.03
2018-05-31T04:44:20.586Z,991.04
2018-05-31T04:45:20.708Z,991.06
2018-05-31T04:46:20.811Z,991.07
2018-05-31T04:47:20.949Z,991.03
2018-05-31T04:48:21.084Z,991.07
2018-05-31T04:49:21.172Z,991.10
2018-05-31T04:50:21.213Z,991.08
2018-05-31T04:51:21.277Z,991.12
2018-05-31T04:52:21.401Z,991.11
2018-05-31T04:53:21.590Z,991.08
2018-05-31T04:54:21.607Z,991.05
2018-05-31T04:55:21.658Z,991.13
2018-05-31T04:56:21.864Z,991.04
2018-05-31T04:57:21.833Z,991.08
2018-05-31T04:58:21.920Z,991.08
2018-05-31T04:59:22.082Z,991.10
2018-05-31T05:00:22.196Z,991.10
2018-05-31T05:01:22.306Z,991.07
2018-05-31T05:02:22.409Z,991.05
2018-05-31T05:03:22.511Z,991.04
2018-05-31T05:04:22.690Z,991.02
2018-05-31T05:05:22.709Z,991.00
2018-05-31T05:06:22.906Z,991.04
2018-05-31T05:07:22.920Z,991.01
2018-05-31T05:08:23.102Z,991.01
2018-05-31T05:09:23.119Z,991.03
2018-05-31T05:10:23.215Z,991.02
2018-05-31T05:11:23.335Z,991.02
2018-05-31T05:12:23.398Z,991.00
2018-05-31T05:13:23.511Z,990.98
2018-05-31T05:14:23.630Z,990.96
2018-05-31T05:15:23.896Z,990.95
2018-05-31T05:16:23.882Z,991.01
2018-05-31T05:17:24.011Z,990.98
2018-05-31T05:18:24.118Z,990.97
2018-05-31T05:19:24.205Z,990.97
2018-05-31T05:20:24.312Z,991.01
2018-05-31T05:21:24.490Z,991.00
2018-05-31T05:22:24.505Z,991.08
2018-05-31T05:23:24.591Z,991.19
2018-05-31T05:24:24.692Z,991.22
2018-05-31T05:25:24.799Z,991.21
2018-05-31T05:26:24.913Z,991.24
2018-05-31T05:27:25.009Z,991.18
2018-05-31T05:28:25.116Z,991.22
2018-05-31T05:29:25.210Z,991.26
2018-05-31T05:30:25.308Z,991.27
2018-05-31T05:31:25.424Z,991.30
2018-05-31T05:32:25.514Z,991.30
2018-05-31T05:33:25.613Z,991.30
2018-05-31T05:34:25.729Z,991.32
2018-05-31T05:35:25.845Z,991.33
2018-05-31T05:36:25.956Z,991.33
2018-05-31T05:37:26.064Z,991.32
2018-05-31T05:38:26.168Z,991.27
2018-05-31T05:39:26.273Z,991.27
2018-05-31T05:40:26.377Z,991.34
2018-05-31T05:41:26.487Z,991.33
2018-05-31T05:42:26.594Z,991.29
2018-05-31T05:43:26.728Z,991.25
2018-05-31T05:44:26.793Z,991.29
2018-05-31T05:45:26.922Z,991.31
2018-05-31T05:46:27.028Z,991.28
2018-05-31T05:47:27.167Z,991.29
2018-05-31T05:48:27.279Z,991.33
2018-05-31T05:49:27.379Z,991.36
2018-05-31T05:50:27.493Z,991.30
2018-05-31T05:51:27.599Z,991.31
2018-05-31T05:52:27.700Z,991.33
2018-05-31T05:53:27.808Z,991.33
2018-05-31T05:54:27.924Z,991.35
2018-05-31T05:55:28.035Z,991.37
2018-05-31T05:56:28.150Z,991.36
2018-05-31T05:57:28.266Z,991.39
2018-05-31T05:58:28.380Z,991.39
2018-05-31T05:59:28.493Z,991.39
2018-05-31T06:00:28.608Z,991.40
2018-05-31T06:01:28.718Z,991.41
2018-05-31T06:02:28.831Z,991.30
2018-05-31T06:03:28.942Z,991.29
2018-05-31T06:04:29.109Z,991.30
2018-05-31T06:05:29.192Z,991.35
2018-05-31T06:06:29.306Z,991.35
2018-05-31T06:07:29.416Z,991.47
2018-05-31T06:08:29.525Z,991.49
2018-05-31T06:09:29.635Z,991.51
2018-05-31T06:10:29.745Z,991.50
2018-05-31T06:11:29.856Z,991.50
2018-05-31T06:12:29.969Z,991.55
2018-05-31T06:13:30.079Z,991.56
2018-05-31T06:14:30.207Z,991.57
2018-05-31T06:15:30.345Z,991.57
2018-05-31T06:16:30.428Z,991.55
2018-05-31T06:17:30.539Z,991.54
2018-05-31T06:18:30.651Z,991.51
2018-05-31T06:19:30.785Z,991.49
2018-05-31T06:20:30.899Z,991.45
2018-05-31T06:21:31.010Z,991.41
2018-05-31T06:22:31.122Z,991.37
2018-05-31T06:23:31.232Z,991.28
2018-05-31T06:24:31.358Z,991.26
2018-05-31T06:25:31.456Z,991.21
2018-05-31T06:26:31.694Z,991.25
2018-05-31T06:27:31.681Z,991.22
2018-05-31T06:28:31.789Z,991.25
2018-05-31T06:29:31.900Z,991.28
2018-05-31T06:30:32.014Z,991.26
2018-05-31T06:31:32.124Z,991.28
2018-05-31T06:32:32.239Z,991.31
2018-05-31T06:33:32.394Z,991.31
2018-05-31T06:34:32.500Z,991.34
2018-05-31T06:35:32.609Z,991.36
2018-05-31T06:36:32.720Z,991.43
2018-05-31T06:37:32.831Z,991.40
2018-05-31T06:38:33.112Z,991.40
2018-05-31T06:39:33.107Z,991.40
2018-05-31T06:40:33.219Z,991.40
2018-05-31T06:41:33.316Z,991.39
2018-05-31T06:42:33.508Z,991.44
2018-05-31T06:43:33.677Z,991.42
2018-05-31T06:44:33.585Z,991.41
2018-05-31T06:45:33.738Z,991.45
2018-05-31T06:46:33.874Z,991.43
2018-05-31T06:47:34.071Z,991.38
2018-05-31T06:48:34.065Z,991.36
2018-05-31T06:49:34.183Z,991.36
2018-05-31T06:50:34.305Z,991.36
2018-05-31T06:51:34.481Z,991.34
2018-05-31T06:52:34.645Z,991.32
2018-05-31T06:53:34.675Z,991.32
2018-05-31T06:54:34.867Z,991.37
2018-05-31T06:55:34.881Z,991.32
2018-05-31T06:56:35.027Z,991.34
2018-05-31T06:57:35.173Z,991.33
2018-05-31T06:58:35.419Z,991.34
2018-05-31T06:59:35.465Z,991.36
2018-05-31T07:00:35.482Z,991.38
2018-05-31T07:01:35.593Z,991.38
2018-05-31T07:02:35.704Z,991.42
2018-05-31T07:03:35.811Z,991.43
2018-05-31T07:04:35.919Z,991.47
2018-05-31T07:05:36.024Z,991.48
2018-05-31T07:06:36.129Z,991.47
2018-05-31T07:07:36.237Z,991.49
2018-05-31T07:08:36.345Z,991.49
2018-05-31T07:09:36.457Z,991.46
2018-05-31T07:10:36.566Z,991.45
2018-05-31T07:11:36.673Z,991.49
2018-05-31T07:12:36.783Z,991.46
2018-05-31T07:13:36.892Z,991.46
2018-05-31T07:14:36.999Z,991.42
2018-05-31T07:15:37.113Z,991.44
2018-05-31T07:16:37.225Z,991.43
2018-05-31T07:17:37.332Z,991.41
2018-05-31T07:18:37.438Z,991.40
2018-05-31T07:19:37.545Z,991.38
2018-05-31T07:20:37.654Z,991.37
2018-05-31T07:21:37.763Z,991.38
2018-05-31T07:22:37.866Z,991.40
2018-05-31T07:23:37.975Z,991.40
2018-05-31T07:24:38.082Z,991.41
2018-05-31T07:25:38.192Z,991.42
2018-05-31T07:26:38.295Z,991.41
2018-05-31T07:27:38.406Z,991.45
2018-05-31T07:28:38.511Z,991.45
2018-05-31T07:29:39.588Z,991.48
2018-05-31T07:30:39.615Z,991.46
2018-05-31T07:31:39.614Z,991.45
2018-05-31T07:32:39.197Z,991.44
2018-05-31T07:33:39.463Z,991.47
2018-05-31T07:34:39.282Z,991.48
2018-05-31T07:35:39.425Z,991.47
2018-05-31T07:36:39.597Z,991.47
2018-05-31T07:37:39.734Z,991.51
2018-05-31T07:38:39.765Z,991.51
2018-05-31T07:39:39.912Z,991.50
2018-05-31T07:40:40.065Z,991.52
2018-05-31T07:41:39.976Z,991.52
2018-05-31T07:42:40.240Z,991.57
2018-05-31T07:43:40.421Z,991.56
2018-05-31T07:44:40.395Z,991.59
2018-05-31T07:45:40.748Z,991.57
2018-05-31T07:46:40.618Z,991.60
2018-05-31T07:47:40.883Z,991.59
2018-05-31T07:48:40.897Z,991.59
2018-05-31T07:49:40.890Z,991.57
2018-05-31T07:50:41.314Z,991.58
2018-05-31T07:51:41.418Z,991.60
2018-05-31T07:52:41.257Z,991.57
2018-05-31T07:53:41.364Z,991.56
2018-05-31T07:54:41.516Z,991.53
2018-05-31T07:55:41.588Z,991.53
2018-05-31T07:56:41.661Z,991.50
2018-05-31T07:57:41.761Z,991.47
2018-05-31T07:58:41.821Z,991.47
2018-05-31T07:59:42.191Z,991.45
2018-05-31T08:00:42.043Z,991.48
2018-05-31T08:01:42.482Z,991.43
2018-05-31T08:02:42.425Z,991.45
2018-05-31T08:03:42.502Z,991.43
2018-05-31T08:04:42.576Z,991.38
2018-05-31T08:05:42.639Z,991.42
2018-05-31T08:06:42.989Z,991.43
2018-05-31T08:07:43.004Z,991.45
2018-05-31T08:08:42.912Z,991.49
2018-05-31T08:09:43.072Z,991.49
2018-05-31T08:10:43.393Z,991.51
2018-05-31T08:11:43.238Z,991.53
2018-05-31T08:12:43.416Z,991.54
2018-05-31T08:13:43.556Z,991.51
2018-05-31T08:14:43.824Z,991.56
2018-05-31T08:15:43.723Z,991.58
2018-05-31T08:16:43.881Z,991.57
2018-05-31T08:17:44.004Z,991.55
2018-05-31T08:18:44.106Z,991.56
2018-05-31T08:19:44.271Z,991.56
2018-05-31T08:20:44.515Z,991.55
2018-05-31T08:21:44.482Z,991.53
2018-05-31T08:22:44.579Z,991.55
2018-05-31T08:23:44.714Z,991.52
2018-05-31T08:24:44.790Z,991.50
2018-05-31T08:25:45.151Z,991.52
2018-05-31T08:26:45.135Z,991.51
2018-05-31T08:27:45.137Z,991.50
2018-05-31T08:28:45.595Z,991.47
2018-05-31T08:29:45.400Z,991.49
2018-05-31T08:30:45.565Z,991.44
2018-05-31T08:31:45.596Z,991.49
2018-05-31T08:32:45.750Z,991.49
2018-05-31T08:33:46.114Z,991.46
2018-05-31T08:34:45.947Z,991.49
2018-05-31T08:35:46.317Z,991.49
2018-05-31T08:36:46.198Z,991.47
2018-05-31T08:37:46.327Z,991.52
2018-05-31T08:38:46.632Z,991.55
2018-05-31T08:39:46.488Z,991.55
2018-05-31T08:40:46.629Z,991.53
2018-05-31T08:41:46.730Z,991.55
2018-05-31T08:42:46.923Z,991.56
2018-05-31T08:43:47.029Z,991.55
2018-05-31T08:44:47.167Z,991.53
2018-05-31T08:45:47.378Z,991.55
2018-05-31T08:46:47.395Z,991.59
2018-05-31T08:47:47.524Z,991.63
2018-05-31T08:48:47.693Z,991.64
2018-05-31T08:49:47.726Z,991.59
2018-05-31T08:50:47.957Z,991.60
2018-05-31T08:51:47.993Z,991.61
2018-05-31T08:52:48.089Z,991.58
2018-05-31T08:53:48.183Z,991.59
2018-05-31T08:54:48.319Z,991.60
2018-05-31T08:55:48.448Z,991.56
2018-05-31T08:56:48.629Z,991.60
2018-05-31T08:57:48.720Z,991.58
2018-05-31T08:58:48.723Z,991.62
2018-05-31T08:59:48.902Z,991.56
2018-05-31T09:00:49.080Z,991.57
2018-05-31T09:01:49.018Z,991.56
2018-05-31T09:02:49.254Z,991.59
2018-05-31T09:03:49.361Z,991.60
2018-05-31T09:04:49.327Z,991.55
2018-05-31T09:05:49.440Z,991.55
2018-05-31T09:06:49.595Z,991.57
2018-05-31T09:07:49.739Z,991.58
2018-05-31T09:08:49.919Z,991.56
2018-05-31T09:09:50.262Z,991.56
2018-05-31T09:10:50.026Z,991.51
2018-05-31T09:11:50.126Z,991.52
2018-05-31T09:12:50.295Z,991.51
2018-05-31T09:13:50.408Z,991.48
2018-05-31T09:14:50.603Z,991.49
2018-05-31T09:15:50.718Z,991.44
2018-05-31T09:16:50.736Z,991.49
2018-05-31T09:17:51.007Z,991.44
2018-05-31T09:18:51.104Z,991.47
2018-05-31T09:19:51.467Z,991.48
2018-05-31T09:20:51.284Z,991.44
2018-05-31T09:21:51.547Z,991.46
2018-05-31T09:22:51.739Z,991.46
2018-05-31T09:23:51.645Z,991.41
2018-05-31T09:24:51.739Z,991.42
2018-05-31T09:25:51.771Z,991.45
2018-05-31T09:26:52.020Z,991.48
2018-05-31T09:27:52.252Z,991.47
2018-05-31T09:28:52.166Z,991.47
2018-05-31T09:29:52.402Z,991.46
2018-05-31T09:30:52.525Z,991.49
2018-05-31T09:31:52.594Z,991.45
2018-05-31T09:32:52.627Z,991.43
2018-05-31T09:33:52.777Z,991.42
2018-05-31T09:34:52.907Z,991.42
2018-05-31T09:35:53.191Z,991.38
2018-05-31T09:36:53.206Z,991.37
2018-05-31T09:37:53.425Z,991.36
2018-05-31T09:38:53.394Z,991.42
2018-05-31T09:39:53.485Z,991.39
2018-05-31T09:40:53.590Z,991.37
2018-05-31T09:41:53.687Z,991.37
2018-05-31T09:42:53.981Z,991.32
2018-05-31T09:43:53.926Z,991.35
2018-05-31T09:44:54.038Z,991.34
2018-05-31T09:45:54.097Z,991.30
2018-05-31T09:46:54.220Z,991.33
2018-05-31T09:47:54.334Z,991.31
2018-05-31T09:48:54.441Z,991.30
2018-05-31T09:49:54.550Z,991.29
2018-05-31T09:50:54.662Z,991.25
2018-05-31T09:51:54.774Z,991.32
2018-05-31T09:52:54.905Z,991.31
2018-05-31T09:53:55.020Z,991.32
2018-05-31T09:54:55.135Z,991.30
2018-05-31T09:55:55.243Z,991.36
2018-05-31T09:56:55.348Z,991.33
2018-05-31T09:57:55.462Z,991.33
2018-05-31T09:58:55.594Z,991.32
2018-05-31T09:59:55.713Z,991.33
2018-05-31T10:00:55.837Z,991.33
2018-05-31T10:01:55.944Z,991.33
2018-05-31T10:02:56.501Z,991.31
2018-05-31T10:03:56.231Z,991.31
2018-05-31T10:04:56.347Z,991.30
2018-05-31T10:05:56.365Z,991.30
2018-05-31T10:06:56.480Z,991.29
2018-05-31T10:07:56.588Z,991.32
2018-05-31T10:08:56.683Z,991.33
2018-05-31T10:09:56.991Z,991.30
2018-05-31T10:10:56.962Z,991.33
2018-05-31T10:11:57.058Z,991.29
2018-05-31T10:12:57.171Z,991.30
2018-05-31T10:13:57.281Z,991.33
2018-05-31T10:14:57.391Z,991.29
2018-05-31T10:15:57.501Z,991.26
2018-05-31T10:16:57.616Z,991.29
2018-05-31T10:17:57.724Z,991.30
2018-05-31T10:18:57.833Z,991.27
2018-05-31T10:19:57.947Z,991.24
2018-05-31T10:20:58.054Z,991.22
2018-05-31T10:21:58.167Z,991.23
2018-05-31T10:22:58.276Z,991.19
2018-05-31T10:23:58.387Z,991.22
2018-05-31T10:24:58.498Z,991.22
2018-05-31T10:25:58.607Z,991.21
2018-05-31T10:26:58.718Z,991.20
2018-05-31T10:27:58.827Z,991.19
2018-05-31T10:28:58.936Z,991.19
2018-05-31T10:29:59.045Z,991.18
2018-05-31T10:30:59.156Z,991.22
2018-05-31T10:31:59.281Z,991.20
2018-05-31T10:32:59.392Z,991.19
2018-05-31T10:33:59.502Z,991.14
2018-05-31T10:34:59.611Z,991.12
2018-05-31T10:35:59.727Z,991.08
2018-05-31T10:36:59.838Z,991.06
2018-05-31T10:37:59.948Z,991.12
2018-05-31T10:39:00.060Z,991.04
2018-05-31T10:40:00.168Z,991.05
2018-05-31T10:41:00.279Z,991.03
2018-05-31T10:42:00.393Z,991.08
2018-05-31T10:43:00.501Z,991.06
2018-05-31T10:44:00.609Z,991.06
2018-05-31T10:45:00.722Z,991.05
2018-05-31T10:46:00.830Z,991.06
2018-05-31T10:47:00.943Z,991.02
2018-05-31T10:48:01.050Z,991.07
2018-05-31T10:49:01.167Z,991.08
2018-05-31T10:50:01.276Z,991.08
2018-05-31T10:51:01.393Z,991.11
2018-05-31T10:52:01.504Z,991.07
2018-05-31T10:53:01.624Z,991.08
2018-05-31T10:54:01.725Z,991.08
2018-05-31T10:55:01.836Z,991.10
2018-05-31T10:56:01.949Z,991.11
2018-05-31T10:57:02.063Z,991.10
2018-05-31T10:58:02.182Z,991.15
2018-05-31T10:59:02.293Z,991.05
2018-05-31T11:00:02.400Z,991.08
2018-05-31T11:01:02.508Z,991.11
2018-05-31T11:02:02.619Z,991.06
2018-05-31T11:03:02.750Z,991.03
2018-05-31T11:04:02.858Z,990.96
2018-05-31T11:05:02.969Z,990.96
2018-05-31T11:06:03.085Z,990.99
2018-05-31T11:07:03.193Z,990.97
2018-05-31T11:08:03.303Z,990.98
2018-05-31T11:09:03.412Z,990.96
2018-05-31T11:10:03.520Z,990.98
2018-05-31T11:11:03.626Z,990.98
2018-05-31T11:12:03.738Z,991.03
2018-05-31T11:13:03.849Z,991.06
2018-05-31T11:14:03.961Z,991.06
2018-05-31T11:15:04.070Z,991.07
2018-05-31T11:16:04.182Z,991.03
2018-05-31T11:17:04.291Z,991.06
2018-05-31T11:18:04.399Z,991.01
2018-05-31T11:19:04.504Z,991.02
2018-05-31T11:20:04.613Z,991.00
2018-05-31T11:21:04.724Z,991.01
2018-05-31T11:22:04.839Z,991.00
2018-05-31T11:23:04.946Z,990.98
2018-05-31T11:24:05.059Z,990.95
2018-05-31T11:25:05.166Z,990.92
2018-05-31T11:26:05.283Z,990.88
2018-05-31T11:27:05.392Z,990.88
2018-05-31T11:28:05.503Z,990.84
2018-05-31T11:29:05.614Z,990.80
2018-05-31T11:30:05.725Z,990.79
2018-05-31T11:31:05.843Z,990.79
2018-05-31T11:32:05.951Z,990.77
2018-05-31T11:33:06.061Z,990.72
2018-05-31T11:34:06.174Z,990.79
2018-05-31T11:35:06.285Z,990.76
2018-05-31T11:36:06.390Z,990.76
2018-05-31T11:37:06.497Z,990.77
2018-05-31T11:38:06.606Z,990.74
2018-05-31T11:39:06.718Z,990.73
2018-05-31T11:40:06.837Z,990.70
2018-05-31T11:41:06.946Z,990.71
2018-05-31T11:42:07.052Z,990.63
2018-05-31T11:43:07.159Z,990.65
2018-05-31T11:44:07.266Z,990.59
2018-05-31T11:45:07.378Z,990.55
2018-05-31T11:46:07.491Z,990.53
2018-05-31T11:47:07.602Z,990.54
2018-05-31T11:48:07.711Z,990.51
2018-05-31T11:49:07.845Z,990.52
2018-05-31T11:50:07.952Z,990.49
2018-05-31T11:51:08.064Z,990.50
2018-05-31T11:52:08.174Z,990.48
2018-05-31T11:53:08.286Z,990.47
2018-05-31T11:54:08.398Z,990.47
2018-05-31T11:55:08.580Z,990.43
2018-05-31T11:56:08.569Z,990.47
2018-05-31T11:57:08.657Z,990.45
2018-05-31T11:58:08.755Z,990.46
2018-05-31T11:59:08.917Z,990.45
2018-05-31T12:00:09.091Z,990.47
2018-05-31T12:01:09.099Z,990.44
2018-05-31T12:02:09.197Z,990.45
2018-05-31T12:03:09.342Z,990.43
2018-05-31T12:04:09.450Z,990.46
2018-05-31T12:05:09.570Z,990.46
2018-05-31T12:06:09.745Z,990.44
2018-05-31T12:07:09.732Z,990.43
2018-05-31T12:08:09.904Z,990.43
2018-05-31T12:09:09.946Z,990.48
2018-05-31T12:10:10.053Z,990.41
2018-05-31T12:11:10.124Z,990.38
2018-05-31T12:12:10.280Z,990.40
2018-05-31T12:13:10.367Z,990.35
2018-05-31T12:14:10.469Z,990.39
2018-05-31T12:15:10.600Z,990.35
2018-05-31T12:16:10.707Z,990.38
2018-05-31T12:17:10.834Z,990.30
2018-05-31T12:18:10.956Z,990.30
2018-05-31T12:19:11.052Z,990.27
2018-05-31T12:20:11.150Z,990.30
2018-05-31T12:21:11.256Z,990.36
2018-05-31T12:22:11.365Z,990.34
2018-05-31T12:23:11.510Z,990.43
2018-05-31T12:24:11.623Z,990.39
2018-05-31T12:25:11.757Z,990.39
2018-05-31T12:26:11.899Z,990.39
2018-05-31T12:27:12.025Z,990.38
2018-05-31T12:28:12.077Z,990.41
2018-05-31T12:29:12.176Z,990.39
2018-05-31T12:30:12.282Z,990.39